createdAt,value
2018-03-08T00:00:39.277Z,0.00
2018-03-08T00:01:39.269Z,0.00
2018-03-08T00:02:39.259Z,0.00
2018-03-08T00:03:39.251Z,0.00
2018-03-08T00:04:39.239Z,0.00
2018-03-08T00:05:39.235Z,0.00
2018-03-08T00:06:39.227Z,0.00
2018-03-08T00:07:39.218Z,0.00
2018-03-08T00:08:39.214Z,0.00
2018-03-08T00:09:39.203Z,0.00
2018-03-08T00:10:39.192Z,0.00
2018-03-08T00:11:39.184Z,0.00
2018-03-08T00:12:39.176Z,0.00
2018-03-08T00:13:39.168Z,0.00
2018-03-08T00:14:39.164Z,0.00
2018-03-08T00:15:39.157Z,0.00
2018-03-08T00:16:39.142Z,0.00
2018-03-08T00:17:39.135Z,0.00
2018-03-08T00:18:39.125Z,0.00
2018-03-08T00:19:39.119Z,0.00
2018-03-08T00:20:39.109Z,0.00
2018-03-08T00:21:39.105Z,0.00
2018-03-08T00:22:39.090Z,0.00
2018-03-08T00:23:39.085Z,0.00
2018-03-08T00:24:39.077Z,0.00
2018-03-08T00:25:39.068Z,0.00
2018-03-08T00:26:39.062Z,0.00
2018-03-08T00:27:39.053Z,0.00
2018-03-08T00:28:39.048Z,0.00
2018-03-08T00:29:39.037Z,0.00
2018-03-08T00:30:39.031Z,0.00
2018-03-08T00:31:39.016Z,0.00
2018-03-08T00:32:39.012Z,0.00
2018-03-08T00:33:39.004Z,0.00
2018-03-08T00:34:38.997Z,0.00
2018-03-08T00:35:38.995Z,0.00
2018-03-08T00:36:38.979Z,0.00
2018-03-08T00:37:39.041Z,0.00
2018-03-08T00:38:38.964Z,0.00
2018-03-08T00:39:38.954Z,0.00
2018-03-08T00:40:38.951Z,0.00
2018-03-08T00:41:38.938Z,0.00
2018-03-08T00:42:38.930Z,0.00
2018-03-08T00:43:38.921Z,0.00
2018-03-08T00:44:38.915Z,0.00
2018-03-08T00:45:38.901Z,0.00
2018-03-08T00:46:38.897Z,0.00
2018-03-08T00:47:38.890Z,0.00
2018-03-08T00:48:38.880Z,0.00
2018-03-08T00:49:38.874Z,0.00
2018-03-08T00:50:38.870Z,0.00
2018-03-08T00:51:38.856Z,0.00
2018-03-08T00:52:38.845Z,0.00
2018-03-08T00:53:38.843Z,0.00
2018-03-08T00:54:38.832Z,0.00
2018-03-08T00:55:38.822Z,0.00
2018-03-08T00:56:38.816Z,0.00
2018-03-08T00:57:38.808Z,0.00
2018-03-08T00:58:38.801Z,0.00
2018-03-08T00:59:38.789Z,0.00
2018-03-08T01:00:38.783Z,0.00
2018-03-08T01:01:38.774Z,0.00
2018-03-08T01:02:38.770Z,0.00
2018-03-08T01:03:38.762Z,0.00
2018-03-08T01:04:38.749Z,0.00
2018-03-08T01:05:38.740Z,0.00
2018-03-08T01:06:38.732Z,0.00
2018-03-08T01:07:38.725Z,0.00
2018-03-08T01:08:38.716Z,0.00
2018-03-08T01:09:38.708Z,0.00
2018-03-08T01:10:38.706Z,0.00
2018-03-08T01:11:38.692Z,0.00
2018-03-08T01:12:38.683Z,0.00
2018-03-08T01:13:38.674Z,0.00
2018-03-08T01:14:38.668Z,0.00
2018-03-08T01:15:38.659Z,0.00
2018-03-08T01:16:38.652Z,0.00
2018-03-08T01:17:38.642Z,0.00
2018-03-08T01:18:38.645Z,0.00
2018-03-08T01:19:38.623Z,0.00
2018-03-08T01:20:38.618Z,0.00
2018-03-08T01:21:38.609Z,0.00
2018-03-08T01:22:38.607Z,0.00
2018-03-08T01:23:38.599Z,0.00
2018-03-08T01:24:38.587Z,0.00
2018-03-08T01:25:38.580Z,0.00
2018-03-08T01:26:38.574Z,0.00
2018-03-08T01:27:38.561Z,0.00
2018-03-08T01:28:38.552Z,0.00
2018-03-08T01:29:38.544Z,0.00
2018-03-08T01:30:38.536Z,0.00
2018-03-08T01:31:38.530Z,0.00
2018-03-08T01:32:38.521Z,0.00
2018-03-08T01:33:38.509Z,0.00
2018-03-08T01:34:38.505Z,0.00
2018-03-08T01:35:38.497Z,0.00
2018-03-08T01:36:38.489Z,0.00
2018-03-08T01:37:38.483Z,0.00
2018-03-08T01:38:38.471Z,0.00
2018-03-08T01:39:38.464Z,0.00
2018-03-08T01:40:38.454Z,0.00
2018-03-08T01:41:38.451Z,0.00
2018-03-08T01:42:38.443Z,0.00
2018-03-08T01:43:38.433Z,0.00
2018-03-08T01:44:38.425Z,0.00
2018-03-08T01:45:38.417Z,0.00
2018-03-08T01:46:38.409Z,0.00
2018-03-08T01:47:38.399Z,0.00
2018-03-08T01:48:38.394Z,0.00
2018-03-08T01:49:38.387Z,0.00
2018-03-08T01:50:38.376Z,0.00
2018-03-08T01:51:38.369Z,0.00
2018-03-08T01:52:38.360Z,0.00
2018-03-08T01:53:38.353Z,0.00
2018-03-08T01:54:38.344Z,0.00
2018-03-08T01:55:38.336Z,0.00
2018-03-08T01:56:38.333Z,0.00
2018-03-08T01:57:38.320Z,0.00
2018-03-08T01:58:38.313Z,0.00
2018-03-08T01:59:38.305Z,0.00
2018-03-08T02:00:38.296Z,0.00
2018-03-08T02:01:38.287Z,0.00
2018-03-08T02:02:38.283Z,0.00
2018-03-08T02:03:38.274Z,0.00
2018-03-08T02:04:38.266Z,0.00
2018-03-08T02:05:38.261Z,0.00
2018-03-08T02:06:38.246Z,0.00
2018-03-08T02:07:38.242Z,0.00
2018-03-08T02:08:38.234Z,0.00
2018-03-08T02:09:38.224Z,0.00
2018-03-08T02:10:38.222Z,0.00
2018-03-08T02:11:38.209Z,0.00
2018-03-08T02:12:38.202Z,0.00
2018-03-08T02:13:38.199Z,0.00
2018-03-08T02:14:38.187Z,0.00
2018-03-08T02:15:38.178Z,0.00
2018-03-08T02:16:38.171Z,0.00
2018-03-08T02:17:38.163Z,0.00
2018-03-08T02:18:38.155Z,0.00
2018-03-08T02:19:38.148Z,0.00
2018-03-08T02:20:38.137Z,0.00
2018-03-08T02:21:38.129Z,0.00
2018-03-08T02:22:38.120Z,0.00
2018-03-08T02:23:38.113Z,0.00
2018-03-08T02:24:38.109Z,0.00
2018-03-08T02:25:38.099Z,0.00
2018-03-08T02:26:38.093Z,0.00
2018-03-08T02:27:38.080Z,0.00
2018-03-08T02:28:38.075Z,0.00
2018-03-08T02:29:38.067Z,0.00
2018-03-08T02:30:38.058Z,0.00
2018-03-08T02:31:38.055Z,0.00
2018-03-08T02:32:38.042Z,0.00
2018-03-08T02:33:38.035Z,0.00
2018-03-08T02:34:38.024Z,0.00
2018-03-08T02:35:38.018Z,0.00
2018-03-08T02:36:38.009Z,0.00
2018-03-08T02:37:38.003Z,0.00
2018-03-08T02:38:37.999Z,0.00
2018-03-08T02:39:37.987Z,0.00
2018-03-08T02:40:37.979Z,0.00
2018-03-08T02:41:37.972Z,0.00
2018-03-08T02:42:37.964Z,0.00
2018-03-08T02:43:37.956Z,0.00
2018-03-08T02:44:37.946Z,0.00
2018-03-08T02:45:37.942Z,0.00
2018-03-08T02:46:37.933Z,0.00
2018-03-08T02:47:37.923Z,0.00
2018-03-08T02:48:37.916Z,0.00
2018-03-08T02:49:37.908Z,0.00
2018-03-08T02:50:37.903Z,0.00
2018-03-08T02:51:37.890Z,0.00
2018-03-08T02:52:37.884Z,0.00
2018-03-08T02:53:37.875Z,0.00
2018-03-08T02:54:37.868Z,0.00
2018-03-08T02:55:37.860Z,0.00
2018-03-08T02:56:37.852Z,0.00
2018-03-08T02:57:37.844Z,0.00
2018-03-08T02:58:37.836Z,0.00
2018-03-08T02:59:37.835Z,0.00
2018-03-08T03:00:37.822Z,0.00
2018-03-08T03:01:37.813Z,0.00
2018-03-08T03:02:37.801Z,0.00
2018-03-08T03:03:37.796Z,0.00
2018-03-08T03:04:37.786Z,0.00
2018-03-08T03:05:37.781Z,0.00
2018-03-08T03:06:37.775Z,0.00
2018-03-08T03:07:37.763Z,0.00
2018-03-08T03:08:37.757Z,0.00
2018-03-08T03:09:37.750Z,0.00
2018-03-08T03:10:37.741Z,0.00
2018-03-08T03:11:37.734Z,0.00
2018-03-08T03:12:37.725Z,0.00
2018-03-08T03:13:37.718Z,0.00
2018-03-08T03:14:37.709Z,0.00
2018-03-08T03:15:37.702Z,0.00
2018-03-08T03:16:37.696Z,0.00
2018-03-08T03:17:37.693Z,0.00
2018-03-08T03:18:37.675Z,0.00
2018-03-08T03:19:37.671Z,0.00
2018-03-08T03:20:37.662Z,0.00
2018-03-08T03:21:37.654Z,0.00
2018-03-08T03:22:37.649Z,0.00
2018-03-08T03:23:37.637Z,0.00
2018-03-08T03:24:37.631Z,0.00
2018-03-08T03:25:37.624Z,0.00
2018-03-08T03:26:37.616Z,0.00
2018-03-08T03:27:37.606Z,0.00
2018-03-08T03:28:37.604Z,0.00
2018-03-08T03:29:37.592Z,0.00
2018-03-08T03:30:37.583Z,0.00
2018-03-08T03:31:37.575Z,0.00
2018-03-08T03:32:37.565Z,0.00
2018-03-08T03:33:37.558Z,0.00
2018-03-08T03:34:37.550Z,0.00
2018-03-08T03:35:37.545Z,0.00
2018-03-08T03:36:37.537Z,0.00
2018-03-08T03:37:37.528Z,0.00
2018-03-08T03:38:37.521Z,0.00
2018-03-08T03:39:37.509Z,0.00
2018-03-08T03:40:37.505Z,0.00
2018-03-08T03:41:37.496Z,0.00
2018-03-08T03:42:37.489Z,0.00
2018-03-08T03:43:37.482Z,0.00
2018-03-08T03:44:37.473Z,0.00
2018-03-08T03:45:37.468Z,0.00
2018-03-08T03:46:37.460Z,0.00
2018-03-08T03:47:37.449Z,0.00
2018-03-08T03:48:37.444Z,0.00
2018-03-08T03:49:37.433Z,0.00
2018-03-08T03:50:37.427Z,0.00
2018-03-08T03:51:37.416Z,0.00
2018-03-08T03:52:37.413Z,0.00
2018-03-08T03:53:37.402Z,0.00
2018-03-08T03:54:37.395Z,0.00
2018-03-08T03:55:37.386Z,0.00
2018-03-08T03:56:37.377Z,0.00
2018-03-08T03:57:37.375Z,0.00
2018-03-08T03:58:37.359Z,0.00
2018-03-08T03:59:37.352Z,0.00
2018-03-08T04:00:37.347Z,0.00
2018-03-08T04:01:37.337Z,0.00
2018-03-08T04:02:37.333Z,0.00
2018-03-08T04:03:37.322Z,0.00
2018-03-08T04:04:37.316Z,0.00
2018-03-08T04:05:37.306Z,0.00
2018-03-08T04:06:37.300Z,0.00
2018-03-08T04:07:37.290Z,0.00
2018-03-08T04:08:37.282Z,0.00
2018-03-08T04:09:37.275Z,0.00
2018-03-08T04:10:37.268Z,0.00
2018-03-08T04:11:37.259Z,0.00
2018-03-08T04:12:37.248Z,0.00
2018-03-08T04:13:37.243Z,0.00
2018-03-08T04:14:37.232Z,0.00
2018-03-08T04:15:37.226Z,0.00
2018-03-08T04:16:37.219Z,0.00
2018-03-08T04:17:37.212Z,0.00
2018-03-08T04:18:37.205Z,0.00
2018-03-08T04:19:37.197Z,0.00
2018-03-08T04:20:37.188Z,0.00
2018-03-08T04:21:37.180Z,0.00
2018-03-08T04:22:37.173Z,0.00
2018-03-08T04:23:37.164Z,0.00
2018-03-08T04:24:37.157Z,0.00
2018-03-08T04:25:37.159Z,0.00
2018-03-08T04:26:37.146Z,0.00
2018-03-08T04:27:37.134Z,0.00
2018-03-08T04:28:37.126Z,0.00
2018-03-08T04:29:37.121Z,0.00
2018-03-08T04:30:37.109Z,0.00
2018-03-08T04:31:37.100Z,0.00
2018-03-08T04:32:37.095Z,0.00
2018-03-08T04:33:37.086Z,0.00
2018-03-08T04:34:37.080Z,0.00
2018-03-08T04:35:37.072Z,0.00
2018-03-08T04:36:37.064Z,0.00
2018-03-08T04:37:37.061Z,0.00
2018-03-08T04:38:37.048Z,0.00
2018-03-08T04:39:37.040Z,0.00
2018-03-08T04:40:37.030Z,0.00
2018-03-08T04:41:37.024Z,0.00
2018-03-08T04:42:37.017Z,0.00
2018-03-08T04:43:37.007Z,0.00
2018-03-08T04:44:37.000Z,0.00
2018-03-08T04:45:36.993Z,0.00
2018-03-08T04:46:36.983Z,0.00
2018-03-08T04:47:36.976Z,0.00
2018-03-08T04:48:36.968Z,0.00
2018-03-08T04:49:36.961Z,0.00
2018-03-08T04:50:36.952Z,0.00
2018-03-08T04:51:36.944Z,0.00
2018-03-08T04:52:36.937Z,0.00
2018-03-08T04:53:36.930Z,0.00
2018-03-08T04:54:36.925Z,0.00
2018-03-08T04:55:36.916Z,0.00
2018-03-08T04:56:36.910Z,0.00
2018-03-08T04:57:36.899Z,0.00
2018-03-08T04:58:36.890Z,0.00
2018-03-08T04:59:36.882Z,0.00
2018-03-08T05:00:36.873Z,0.00
2018-03-08T05:01:36.864Z,0.00
2018-03-08T05:02:36.858Z,0.00
2018-03-08T05:03:36.850Z,0.00
2018-03-08T05:04:36.851Z,0.00
2018-03-08T05:05:36.836Z,0.00
2018-03-08T05:06:36.831Z,0.00
2018-03-08T05:07:36.818Z,0.00
2018-03-08T05:08:36.811Z,0.00
2018-03-08T05:09:36.803Z,0.00
2018-03-08T05:10:36.796Z,0.00
2018-03-08T05:11:36.785Z,0.00
2018-03-08T05:12:36.780Z,0.00
2018-03-08T05:13:36.771Z,0.00
2018-03-08T05:14:36.770Z,0.00
2018-03-08T05:15:36.756Z,4.00
2018-03-08T05:16:36.747Z,4.00
2018-03-08T05:17:36.739Z,0.00
2018-03-08T05:18:36.734Z,4.00
2018-03-08T05:19:36.724Z,4.00
2018-03-08T05:20:36.717Z,4.00
2018-03-08T05:21:36.708Z,8.00
2018-03-08T05:22:36.709Z,4.00
2018-03-08T05:23:36.692Z,4.00
2018-03-08T05:24:36.686Z,8.00
2018-03-08T05:25:36.678Z,8.00
2018-03-08T05:26:36.670Z,8.00
2018-03-08T05:27:36.660Z,12.00
2018-03-08T05:28:36.654Z,12.00
2018-03-08T05:29:36.655Z,16.00
2018-03-08T05:30:36.638Z,16.00
2018-03-08T05:31:36.627Z,24.00
2018-03-08T05:32:36.622Z,28.00
2018-03-08T05:33:36.618Z,24.00
2018-03-08T05:34:36.607Z,28.00
2018-03-08T05:35:36.602Z,28.00
2018-03-08T05:36:36.591Z,28.00
2018-03-08T05:37:36.582Z,32.00
2018-03-08T05:38:36.575Z,36.00
2018-03-08T05:39:36.591Z,36.00
2018-03-08T05:40:36.559Z,40.00
2018-03-08T05:41:36.553Z,44.00
2018-03-08T05:42:36.544Z,48.00
2018-03-08T05:43:36.542Z,52.00
2018-03-08T05:44:36.528Z,56.00
2018-03-08T05:45:36.520Z,64.00
2018-03-08T05:46:36.513Z,76.00
2018-03-08T05:47:36.505Z,96.00
2018-03-08T05:48:36.504Z,112.00
2018-03-08T05:49:36.490Z,128.00
2018-03-08T05:50:36.489Z,124.00
2018-03-08T05:51:36.472Z,124.00
2018-03-08T05:52:36.465Z,136.00
2018-03-08T05:53:36.457Z,148.00
2018-03-08T05:54:36.483Z,152.00
2018-03-08T05:55:36.444Z,160.00
2018-03-08T05:56:36.440Z,172.00
2018-03-08T05:57:36.434Z,184.00
2018-03-08T05:58:36.418Z,184.00
2018-03-08T05:59:36.413Z,188.00
2018-03-08T06:00:36.401Z,184.00
2018-03-08T06:01:36.397Z,196.00
2018-03-08T06:02:36.394Z,200.00
2018-03-08T06:03:36.384Z,208.00
2018-03-08T06:04:36.375Z,212.00
2018-03-08T06:05:36.367Z,220.00
2018-03-08T06:06:36.365Z,228.00
2018-03-08T06:07:36.348Z,244.00
2018-03-08T06:08:36.345Z,260.00
2018-03-08T06:09:36.336Z,280.00
2018-03-08T06:10:36.330Z,284.00
2018-03-08T06:11:36.325Z,280.00
2018-03-08T06:12:36.312Z,256.00
2018-03-08T06:13:36.305Z,276.00
2018-03-08T06:14:36.299Z,292.00
2018-03-08T06:15:36.288Z,312.00
2018-03-08T06:16:36.282Z,336.00
2018-03-08T06:17:36.275Z,372.00
2018-03-08T06:18:36.268Z,388.00
2018-03-08T06:19:36.260Z,456.00
2018-03-08T06:20:36.269Z,472.00
2018-03-08T06:21:36.249Z,432.00
2018-03-08T06:22:36.239Z,460.00
2018-03-08T06:23:36.229Z,472.00
2018-03-08T06:24:36.221Z,456.00
2018-03-08T06:25:36.220Z,492.00
2018-03-08T06:26:36.207Z,512.00
2018-03-08T06:27:36.202Z,556.00
2018-03-08T06:28:36.192Z,624.00
2018-03-08T06:29:36.185Z,720.00
2018-03-08T06:30:36.177Z,840.00
2018-03-08T06:31:36.170Z,876.00
2018-03-08T06:32:36.163Z,872.00
2018-03-08T06:33:36.162Z,904.00
2018-03-08T06:34:36.148Z,1004.00
2018-03-08T06:35:36.140Z,1188.00
2018-03-08T06:36:36.132Z,1200.00
2018-03-08T06:37:36.127Z,1172.00
2018-03-08T06:38:36.117Z,912.00
2018-03-08T06:39:36.112Z,736.00
2018-03-08T06:40:36.106Z,776.00
2018-03-08T06:41:36.099Z,784.00
2018-03-08T06:42:36.089Z,856.00
2018-03-08T06:43:36.082Z,916.00
2018-03-08T06:44:36.076Z,920.00
2018-03-08T06:45:36.068Z,812.00
2018-03-08T06:46:36.060Z,792.00
2018-03-08T06:47:36.056Z,720.00
2018-03-08T06:48:36.046Z,652.00
2018-03-08T06:49:36.038Z,652.00
2018-03-08T06:50:36.034Z,692.00
2018-03-08T06:51:36.025Z,736.00
2018-03-08T06:52:36.016Z,800.00
2018-03-08T06:53:36.011Z,832.00
2018-03-08T06:54:36.003Z,968.00
2018-03-08T06:55:36.003Z,1072.00
2018-03-08T06:56:35.992Z,980.00
2018-03-08T06:57:35.984Z,864.00
2018-03-08T06:58:35.977Z,820.00
2018-03-08T06:59:35.966Z,804.00
2018-03-08T07:00:35.958Z,844.00
2018-03-08T07:01:35.953Z,820.00
2018-03-08T07:02:35.946Z,804.00
2018-03-08T07:03:35.938Z,908.00
2018-03-08T07:04:35.932Z,944.00
2018-03-08T07:05:35.925Z,848.00
2018-03-08T07:06:35.920Z,792.00
2018-03-08T07:07:35.909Z,748.00
2018-03-08T07:08:35.903Z,648.00
2018-03-08T07:09:35.897Z,552.00
2018-03-08T07:10:35.890Z,560.00
2018-03-08T07:11:35.882Z,620.00
2018-03-08T07:12:35.878Z,680.00
2018-03-08T07:13:35.875Z,708.00
2018-03-08T07:14:35.860Z,764.00
2018-03-08T07:15:35.853Z,828.00
2018-03-08T07:16:35.846Z,824.00
2018-03-08T07:17:35.843Z,800.00
2018-03-08T07:18:35.834Z,784.00
2018-03-08T07:19:35.825Z,816.00
2018-03-08T07:20:35.815Z,912.00
2018-03-08T07:21:35.810Z,912.00
2018-03-08T07:22:35.804Z,888.00
2018-03-08T07:23:35.796Z,896.00
2018-03-08T07:24:35.796Z,868.00
2018-03-08T07:25:35.784Z,888.00
2018-03-08T07:26:35.776Z,976.00
2018-03-08T07:27:35.764Z,1012.00
2018-03-08T07:28:35.783Z,968.00
2018-03-08T07:29:35.800Z,948.00
2018-03-08T07:30:35.751Z,880.00
2018-03-08T07:31:35.741Z,792.00
2018-03-08T07:32:35.733Z,728.00
2018-03-08T07:33:35.725Z,680.00
2018-03-08T07:34:35.720Z,648.00
2018-03-08T07:35:35.710Z,668.00
2018-03-08T07:36:35.704Z,700.00
2018-03-08T07:37:35.699Z,760.00
2018-03-08T07:38:35.690Z,724.00
2018-03-08T07:39:35.683Z,724.00
2018-03-08T07:40:35.676Z,740.00
2018-03-08T07:41:35.669Z,788.00
2018-03-08T07:42:35.664Z,880.00
2018-03-08T07:43:35.658Z,968.00
2018-03-08T07:44:35.648Z,856.00
2018-03-08T07:45:35.646Z,672.00
2018-03-08T07:46:35.639Z,580.00
2018-03-08T07:47:35.633Z,580.00
2018-03-08T07:48:35.622Z,600.00
2018-03-08T07:49:35.616Z,604.00
2018-03-08T07:50:35.611Z,604.00
2018-03-08T07:51:35.603Z,584.00
2018-03-08T07:52:35.593Z,556.00
2018-03-08T07:53:35.586Z,588.00
2018-03-08T07:54:35.580Z,612.00
2018-03-08T07:55:35.574Z,608.00
2018-03-08T07:56:35.566Z,656.00
2018-03-08T07:57:35.559Z,692.00
2018-03-08T07:58:35.551Z,736.00
2018-03-08T07:59:35.544Z,728.00
2018-03-08T08:00:35.538Z,684.00
2018-03-08T08:01:35.531Z,668.00
2018-03-08T08:02:35.526Z,704.00
2018-03-08T08:03:35.515Z,720.00
2018-03-08T08:04:35.510Z,660.00
2018-03-08T08:05:35.501Z,564.00
2018-03-08T08:06:35.502Z,476.00
2018-03-08T08:07:35.488Z,412.00
2018-03-08T08:08:35.484Z,412.00
2018-03-08T08:09:35.477Z,444.00
2018-03-08T08:10:35.472Z,488.00
2018-03-08T08:11:35.461Z,532.00
2018-03-08T08:12:35.456Z,616.00
2018-03-08T08:13:35.449Z,752.00
2018-03-08T08:14:35.440Z,900.00
2018-03-08T08:15:35.439Z,1096.00
2018-03-08T08:16:35.429Z,1144.00
2018-03-08T08:17:35.419Z,1204.00
2018-03-08T08:18:35.413Z,1280.00
2018-03-08T08:19:35.406Z,1300.00
2018-03-08T08:20:35.401Z,1228.00
2018-03-08T08:21:35.393Z,1164.00
2018-03-08T08:22:35.386Z,1044.00
2018-03-08T08:23:35.379Z,1016.00
2018-03-08T08:24:35.374Z,912.00
2018-03-08T08:25:35.365Z,904.00
2018-03-08T08:26:35.363Z,920.00
2018-03-08T08:27:35.349Z,908.00
2018-03-08T08:28:35.344Z,936.00
2018-03-08T08:29:35.335Z,948.00
2018-03-08T08:30:35.333Z,1052.00
2018-03-08T08:31:35.323Z,1140.00
2018-03-08T08:32:35.318Z,1076.00
2018-03-08T08:33:35.310Z,1100.00
2018-03-08T08:34:35.312Z,1164.00
2018-03-08T08:35:35.292Z,1052.00
2018-03-08T08:36:35.289Z,1144.00
2018-03-08T08:37:35.282Z,1164.00
2018-03-08T08:38:35.275Z,1508.00
2018-03-08T08:39:35.269Z,1240.00
2018-03-08T08:40:35.261Z,1164.00
2018-03-08T08:41:35.253Z,1032.00
2018-03-08T08:42:35.252Z,892.00
2018-03-08T08:43:35.240Z,964.00
2018-03-08T08:44:35.235Z,756.00
2018-03-08T08:45:35.229Z,680.00
2018-03-08T08:46:35.232Z,740.00
2018-03-08T08:47:35.217Z,800.00
2018-03-08T08:48:35.207Z,1028.00
2018-03-08T08:49:35.197Z,1200.00
2018-03-08T08:50:35.194Z,1344.00
2018-03-08T08:51:35.184Z,1416.00
2018-03-08T08:52:35.179Z,1320.00
2018-03-08T08:53:35.175Z,1348.00
2018-03-08T08:54:35.225Z,1380.00
2018-03-08T08:55:35.158Z,1208.00
2018-03-08T08:56:35.150Z,1168.00
2018-03-08T08:57:35.145Z,960.00
2018-03-08T08:58:35.138Z,848.00
2018-03-08T08:59:35.130Z,828.00
2018-03-08T09:00:35.124Z,780.00
2018-03-08T09:01:35.119Z,692.00
2018-03-08T09:02:35.112Z,616.00
2018-03-08T09:03:35.104Z,608.00
2018-03-08T09:04:35.096Z,600.00
2018-03-08T09:05:35.085Z,712.00
2018-03-08T09:06:35.082Z,708.00
2018-03-08T09:07:35.102Z,948.00
2018-03-08T09:08:35.068Z,1048.00
2018-03-08T09:09:35.064Z,1208.00
2018-03-08T09:10:35.056Z,1220.00
2018-03-08T09:11:35.072Z,1204.00
2018-03-08T09:12:35.038Z,1404.00
2018-03-08T09:13:35.033Z,1316.00
2018-03-08T09:14:35.025Z,1216.00
2018-03-08T09:15:35.021Z,1064.00
2018-03-08T09:16:35.012Z,1240.00
2018-03-08T09:17:35.011Z,1056.00
2018-03-08T09:18:34.996Z,1224.00
2018-03-08T09:19:34.990Z,1276.00
2018-03-08T09:20:34.982Z,1232.00
2018-03-08T09:21:34.976Z,1204.00
2018-03-08T09:22:34.981Z,1144.00
2018-03-08T09:23:34.962Z,1256.00
2018-03-08T09:24:34.956Z,1324.00
2018-03-08T09:25:34.949Z,1328.00
2018-03-08T09:26:34.941Z,1432.00
2018-03-08T09:27:34.934Z,1412.00
2018-03-08T09:28:34.929Z,1644.00
2018-03-08T09:29:34.920Z,1656.00
2018-03-08T09:30:34.914Z,1764.00
2018-03-08T09:31:34.908Z,1732.00
2018-03-08T09:32:34.900Z,1728.00
2018-03-08T09:33:34.891Z,1896.00
2018-03-08T09:34:34.887Z,2060.00
2018-03-08T09:35:34.873Z,2316.00
2018-03-08T09:36:34.873Z,2572.00
2018-03-08T09:37:34.865Z,2444.00
2018-03-08T09:38:34.860Z,2036.00
2018-03-08T09:39:34.850Z,1920.00
2018-03-08T09:40:34.847Z,1764.00
2018-03-08T09:41:34.836Z,1716.00
2018-03-08T09:42:34.830Z,1528.00
2018-03-08T09:43:34.824Z,1748.00
2018-03-08T09:44:34.818Z,1736.00
2018-03-08T09:45:34.810Z,2176.00
2018-03-08T09:46:34.804Z,2404.00
2018-03-08T09:47:34.808Z,2372.00
2018-03-08T09:48:34.790Z,1952.00
2018-03-08T09:49:34.781Z,1732.00
2018-03-08T09:50:34.779Z,1784.00
2018-03-08T09:51:34.769Z,1696.00
2018-03-08T09:52:34.763Z,1540.00
2018-03-08T09:53:34.755Z,1288.00
2018-03-08T09:54:34.752Z,1320.00
2018-03-08T09:55:34.748Z,1260.00
2018-03-08T09:56:34.732Z,1384.00
2018-03-08T09:57:34.727Z,1340.00
2018-03-08T09:58:34.719Z,1420.00
2018-03-08T09:59:34.713Z,1392.00
2018-03-08T10:00:34.707Z,1360.00
2018-03-08T10:01:34.702Z,1404.00
2018-03-08T10:02:34.697Z,1364.00
2018-03-08T10:03:34.684Z,1208.00
2018-03-08T10:04:34.679Z,1660.00
2018-03-08T10:05:34.674Z,1688.00
2018-03-08T10:06:34.666Z,2100.00
2018-03-08T10:07:34.659Z,2160.00
2018-03-08T10:08:34.652Z,1988.00
2018-03-08T10:09:34.647Z,2144.00
2018-03-08T10:10:34.639Z,2096.00
2018-03-08T10:11:34.630Z,2448.00
2018-03-08T10:12:34.624Z,2312.00
2018-03-08T10:13:34.620Z,2344.00
2018-03-08T10:14:34.610Z,2248.00
2018-03-08T10:15:34.605Z,1888.00
2018-03-08T10:16:34.596Z,2232.00
2018-03-08T10:17:34.594Z,1944.00
2018-03-08T10:18:34.584Z,2096.00
2018-03-08T10:19:34.577Z,1932.00
2018-03-08T10:20:34.569Z,2292.00
2018-03-08T10:21:47.455Z,2200.00
2018-03-08T10:22:34.608Z,2664.00
2018-03-08T10:23:34.550Z,2220.00
2018-03-08T10:24:34.542Z,2416.00
2018-03-08T10:25:34.541Z,2620.00
2018-03-08T10:26:34.525Z,2232.00
2018-03-08T10:27:34.524Z,2304.00
2018-03-08T10:28:34.514Z,2016.00
2018-03-08T10:29:34.536Z,2352.00
2018-03-08T10:30:34.503Z,1964.00
2018-03-08T10:31:34.498Z,1928.00
2018-03-08T10:32:34.487Z,1960.00
2018-03-08T10:33:34.481Z,1856.00
2018-03-08T10:34:34.473Z,1804.00
2018-03-08T10:35:34.466Z,1792.00
2018-03-08T10:36:34.460Z,2260.00
2018-03-08T10:37:34.454Z,2396.00
2018-03-08T10:38:34.448Z,2100.00
2018-03-08T10:39:34.440Z,2444.00
2018-03-08T10:43:34.410Z,2348.00
2018-03-08T10:44:34.405Z,2780.00
2018-03-08T10:45:34.403Z,2656.00
2018-03-08T10:46:34.392Z,2400.00
2018-03-08T10:47:34.385Z,2216.00
2018-03-08T10:48:34.377Z,2296.00
2018-03-08T10:49:34.372Z,1920.00
2018-03-08T10:50:34.365Z,1972.00
2018-03-08T10:51:34.364Z,2076.00
2018-03-08T10:52:34.354Z,1768.00
2018-03-08T10:53:34.344Z,1800.00
2018-03-08T10:54:34.339Z,1972.00
2018-03-08T10:55:34.331Z,2148.00
2018-03-08T10:56:34.323Z,2080.00
2018-03-08T10:57:34.343Z,2548.00
2018-03-08T10:58:34.312Z,2508.00
2018-03-08T10:59:34.310Z,2208.00
2018-03-08T11:00:34.295Z,2488.00
2018-03-08T11:01:34.289Z,2496.00
2018-03-08T11:02:34.283Z,2256.00
2018-03-08T11:03:34.290Z,1880.00
2018-03-08T11:04:34.267Z,1804.00
2018-03-08T11:05:34.263Z,1576.00
2018-03-08T11:06:34.269Z,1480.00
2018-03-08T11:07:34.248Z,1572.00
2018-03-08T11:08:34.244Z,1476.00
2018-03-08T11:09:34.236Z,1572.00
2018-03-08T11:10:34.230Z,1568.00
2018-03-08T11:11:34.222Z,1752.00
2018-03-08T11:12:34.216Z,2068.00
2018-03-08T11:13:34.210Z,1984.00
2018-03-08T11:14:34.203Z,1960.00
2018-03-08T11:15:34.197Z,1940.00
2018-03-08T11:16:34.190Z,2000.00
2018-03-08T11:17:34.186Z,1732.00
2018-03-08T11:18:34.178Z,2040.00
2018-03-08T11:19:34.169Z,2120.00
2018-03-08T11:20:34.164Z,2188.00
2018-03-08T11:21:34.156Z,2584.00
2018-03-08T11:22:34.155Z,3252.00
2018-03-08T11:23:34.187Z,3064.00
2018-03-08T11:24:34.137Z,3656.00
2018-03-08T11:25:34.132Z,3476.00
2018-03-08T11:26:34.129Z,3620.00
2018-03-08T11:27:34.114Z,3932.00
2018-03-08T11:28:34.110Z,3984.00
2018-03-08T11:29:34.103Z,3876.00
2018-03-08T11:30:34.099Z,3828.00
2018-03-08T11:31:34.091Z,3828.00
2018-03-08T11:32:34.087Z,4412.00
2018-03-08T11:33:34.079Z,4636.00
2018-03-08T11:34:34.074Z,4868.00
2018-03-08T11:35:34.067Z,5180.00
2018-03-08T11:36:34.060Z,6320.00
2018-03-08T11:37:34.055Z,6636.00
2018-03-08T11:38:34.048Z,6244.00
2018-03-08T11:39:34.151Z,6616.00
2018-03-08T11:40:34.037Z,6664.00
2018-03-08T11:41:34.030Z,7752.00
2018-03-08T11:42:34.022Z,7384.00
2018-03-08T11:43:34.016Z,6068.00
2018-03-08T11:44:34.010Z,5444.00
2018-03-08T11:45:34.005Z,5948.00
2018-03-08T11:46:34.000Z,6088.00
2018-03-08T11:47:33.998Z,6224.00
2018-03-08T11:48:33.989Z,6564.00
2018-03-08T11:49:33.985Z,6308.00
2018-03-08T11:50:33.978Z,5520.00
2018-03-08T11:51:33.971Z,5460.00
2018-03-08T11:52:33.965Z,5276.00
2018-03-08T11:53:33.959Z,5492.00
2018-03-08T11:54:33.957Z,5972.00
2018-03-08T11:55:33.966Z,5912.00
2018-03-08T11:56:33.943Z,6100.00
2018-03-08T11:57:33.938Z,6448.00
2018-03-08T11:58:33.934Z,5980.00
2018-03-08T11:59:33.930Z,5932.00
2018-03-08T12:00:33.924Z,5988.00
2018-03-08T12:01:33.923Z,5848.00
2018-03-08T12:02:33.911Z,5428.00
2018-03-08T12:03:33.907Z,5020.00
2018-03-08T12:04:33.900Z,5588.00
2018-03-08T12:05:33.898Z,5980.00
2018-03-08T12:06:33.891Z,6348.00
2018-03-08T12:07:33.885Z,6392.00
2018-03-08T12:08:33.881Z,7004.00
2018-03-08T12:09:33.883Z,7744.00
2018-03-08T12:10:33.871Z,8120.00
2018-03-08T12:11:33.864Z,7484.00
2018-03-08T12:12:33.861Z,6384.00
2018-03-08T12:13:33.855Z,5788.00
2018-03-08T12:14:33.852Z,6236.00
2018-03-08T12:15:33.848Z,5940.00
2018-03-08T12:16:33.842Z,5652.00
2018-03-08T12:17:33.836Z,5748.00
2018-03-08T12:18:33.833Z,5760.00
2018-03-08T12:19:33.827Z,4896.00
2018-03-08T12:20:33.827Z,4784.00
2018-03-08T12:21:33.819Z,4740.00
2018-03-08T12:22:33.813Z,3984.00
2018-03-08T12:23:33.812Z,3712.00
2018-03-08T12:24:33.805Z,3652.00
2018-03-08T12:25:33.799Z,3704.00
2018-03-08T12:26:33.796Z,4820.00
2018-03-08T12:27:33.792Z,4792.00
2018-03-08T12:28:33.780Z,3632.00
2018-03-08T12:29:33.785Z,3400.00
2018-03-08T12:30:33.778Z,3484.00
2018-03-08T12:31:33.772Z,3408.00
2018-03-08T12:32:33.768Z,3432.00
2018-03-08T12:33:33.764Z,3644.00
2018-03-08T12:34:33.759Z,3664.00
2018-03-08T12:35:33.757Z,3496.00
2018-03-08T12:36:33.748Z,4308.00
2018-03-08T12:37:33.741Z,3740.00
2018-03-08T12:38:33.741Z,3528.00
2018-03-08T12:39:33.763Z,4272.00
2018-03-08T12:40:33.730Z,5088.00
2018-03-08T12:41:33.725Z,4748.00
2018-03-08T12:42:33.724Z,5260.00
2018-03-08T12:43:33.718Z,5200.00
2018-03-08T12:44:33.716Z,5640.00